Nordic Viking — WDD8641 — position and weather

sailwx.info

Track history (hours):
 
Tides and Currents Weather Stations Pressure Air Temp Water Temp Dewpoint Dewpoint Depression Visibility Wind Speed Wind Dir Waves Ship Positions

Nordic Viking

Owner: Nordic Viking Inc, Wildwood, NJ. More information available from US FCC via Universal Licensing System and Coast Guard Vessel Documentation Center.

Last reported at 2017-Dec-20 16:47 UTC. Time now 2018-Jan-21 04:54 UTC.
Position N 34°38' W 076°39'.
Warning: this ship's position is 31 days out of date.

Length 26 m.

Type: Fishing. MMSI: 367300830.

Date/timePositionNaut miles runAvg speedWind from/ knotsBaromVisibWave heightAir tempDewpointWater temp
2017-Dec-20 16:47N 34°38' W 076°39'2 7.4
2017-Dec-20 16:31N 34°40' W 076°40'3 6.5
2017-Dec-20 16:01N 34°43' W 076°40'0 0.0
2017-Dec-20 15:30N 34°43' W 076°40'0 0.0
2017-Dec-20 15:00N 34°43' W 076°40'0 0.0
2017-Dec-20 14:30N 34°43' W 076°40'0 0.0
2017-Dec-20 14:00N 34°43' W 076°40'0 0.0
2017-Dec-20 13:30N 34°43' W 076°40'0 0.0
2017-Dec-20 13:00N 34°43' W 076°40'0 0.0
2017-Dec-20 12:30N 34°43' W 076°40'1 3.0
2017-Dec-20 12:00N 34°42' W 076°40'3 5.2
2017-Dec-20 11:28N 34°39' W 076°40'0 0.4
2017-Dec-20 11:00N 34°39' W 076°40'2 3.2
2017-Dec-20 10:30N 34°37' W 076°40'0 0.5
2017-Dec-20 09:58N 34°37' W 076°40'0 0.4
2017-Dec-20 09:28N 34°37' W 076°40'0 0.4
2017-Dec-20 08:55N 34°37' W 076°40'0 0.5
2017-Dec-20 08:30N 34°36' W 076°40'1 2.5
2017-Dec-20 08:00N 34°35' W 076°40'1 2.4
2017-Dec-20 07:30N 34°34' W 076°39'1 2.5
2017-Dec-20 06:58N 34°33' W 076°39'  
Track history (hours):
 
Tides and Currents Weather Stations Pressure Air Temp Water Temp Dewpoint Dewpoint Depression Visibility Wind Speed Wind Dir Waves Ship Positions

Nordic Viking

Owner: Nordic Viking Inc, Wildwood, NJ. More information available from US FCC via Universal Licensing System and Coast Guard Vessel Documentation Center.

Last reported at 2017-Dec-20 16:47 UTC. Time now 2018-Jan-21 04:54 UTC.
Position N 34°38' W 076°39'.
Warning: this ship's position is 31 days out of date.

Length 26 m.

Type: Fishing. MMSI: 367300830.

Date/timePositionNaut miles runAvg speedWind from/ knotsBaromVisibWave heightAir tempDewpointWater temp
2017-Dec-20 16:47N 34°38' W 076°39'2 7.4
2017-Dec-20 16:31N 34°40' W 076°40'3 6.5
2017-Dec-20 16:01N 34°43' W 076°40'0 0.0
2017-Dec-20 15:30N 34°43' W 076°40'0 0.0
2017-Dec-20 15:00N 34°43' W 076°40'0 0.0
2017-Dec-20 14:30N 34°43' W 076°40'0 0.0
2017-Dec-20 14:00N 34°43' W 076°40'0 0.0
2017-Dec-20 13:30N 34°43' W 076°40'0 0.0
2017-Dec-20 13:00N 34°43' W 076°40'0 0.0
2017-Dec-20 12:30N 34°43' W 076°40'1 3.0
2017-Dec-20 12:00N 34°42' W 076°40'3 5.2
2017-Dec-20 11:28N 34°39' W 076°40'0 0.4
2017-Dec-20 11:00N 34°39' W 076°40'2 3.2
2017-Dec-20 10:30N 34°37' W 076°40'0 0.5
2017-Dec-20 09:58N 34°37' W 076°40'0 0.4
2017-Dec-20 09:28N 34°37' W 076°40'0 0.4
2017-Dec-20 08:55N 34°37' W 076°40'0 0.5
2017-Dec-20 08:30N 34°36' W 076°40'1 2.5
2017-Dec-20 08:00N 34°35' W 076°40'1 2.4
2017-Dec-20 07:30N 34°34' W 076°39'1 2.5
2017-Dec-20 06:58N 34°33' W 076°39'  

Dump ship's entire track history